Time;durP1;ratioP1;P1;durP2;ratioP2;P2;SDS_P1;SDS_P2;PMS_P1;PMS_P2;Temp;Humidity;BMP_temperature;BMP_pressure;BME280_temperature;BME280_humidity;BME280_pressure;Samples;Min_cycle;Max_cycle;Signal;HPM_P1;HPM_P2
2021/12/14 00:02:25;;;;;;;32.22;17.92;;;;;;;-142.75;100.00;78527.44;4949652;29;20026;-66
2021/12/14 00:04:51;;;;;;;29.23;19.52;;;;;;;-142.75;100.00;78545.16;4951436;28;20035;-66
2021/12/14 00:07:19;;;;;;;33.28;19.80;;;;;;;-142.75;100.00;78543.19;4950911;28;20034;-67
2021/12/14 00:09:45;;;;;;;30.40;19.17;;;;;;;-142.75;100.00;78541.22;4949861;28;20053;-66
2021/12/14 00:15:06;;;;;;;28.65;18.92;;;;;;;-142.75;100.00;78570.75;4950738;28;20035;-66
2021/12/14 00:17:42;;;;;;;26.08;17.75;;;;;;;-142.75;100.00;78570.75;4950577;28;20392;-66
2021/12/14 00:20:20;;;;;;;28.67;19.10;;;;;;;-142.75;100.00;78572.72;4949828;28;20047;-66
2021/12/14 00:25:29;;;;;;;29.48;20.42;;;;;;;-142.75;100.00;78582.59;4950931;28;20035;-66
2021/12/14 00:27:57;;;;;;;30.67;21.27;;;;;;;-142.75;100.00;78578.63;4950326;28;20106;-66
2021/12/14 00:30:23;;;;;;;29.38;19.33;;;;;;;-142.75;100.00;78566.81;4948344;28;20412;-66
2021/12/14 00:32:48;;;;;;;32.90;19.67;;;;;;;-142.75;100.00;78564.84;4950698;28;20027;-66
2021/12/14 00:35:15;;;;;;;32.17;20.63;;;;;;;-142.75;100.00;78582.59;4950462;28;20023;-67
2021/12/14 00:37:45;;;;;;;32.28;21.02;;;;;;;-142.75;100.00;78590.47;4950187;28;20051;-66
2021/12/14 00:40:28;;;;;;;27.95;18.45;;;;;;;-142.75;100.00;78586.53;4949461;28;20218;-66
2021/12/14 00:42:55;;;;;;;30.52;20.05;;;;;;;-142.75;100.00;78582.59;4949877;28;20027;-65
2021/12/14 00:45:23;;;;;;;30.75;20.05;;;;;;;-142.75;100.00;78570.75;4950392;28;20435;-66
2021/12/14 00:47:49;;;;;;;29.33;20.40;;;;;;;-142.75;100.00;78551.06;4950111;28;20023;-66
2021/12/14 00:50:16;;;;;;;32.75;22.75;;;;;;;-142.75;100.00;78566.81;4949291;28;20114;-66
2021/12/14 00:52:43;;;;;;;37.20;22.50;;;;;;;-142.75;100.00;78564.84;4949817;28;20708;-66
2021/12/14 00:55:14;;;;;;;32.25;22.08;;;;;;;-142.75;100.00;78578.63;4949943;28;20035;-66
2021/12/14 00:57:40;;;;;;;34.75;23.15;;;;;;;-142.75;100.00;78568.78;4949848;28;20036;-66
2021/12/14 01:00:10;;;;;;;34.05;23.02;;;;;;;-142.75;100.00;78562.88;4947666;28;20027;-66
2021/12/14 01:02:37;;;;;;;33.80;22.27;;;;;;;-142.75;100.00;78560.91;4949176;28;20045;-66
2021/12/14 01:05:09;;;;;;;35.85;22.98;;;;;;;-142.75;100.00;78560.91;4950278;28;20046;-66
2021/12/14 01:07:34;;;;;;;31.65;22.83;;;;;;;-142.75;100.00;78570.75;4949723;28;20039;-67
2021/12/14 01:10:06;;;;;;;34.53;23.52;;;;;;;-142.75;100.00;78547.13;4948854;28;20126;-67
2021/12/14 01:12:41;;;;;;;35.65;23.35;;;;;;;-142.75;100.00;78551.06;4949631;28;20051;-66
2021/12/14 01:15:23;;;;;;;33.92;23.30;;;;;;;-142.75;100.00;78543.19;4949502;28;20642;-66
2021/12/14 01:20:43;;;;;;;38.63;23.30;;;;;;;-142.75;100.00;78551.06;4938675;28;20038;-67
2021/12/14 01:23:25;;;;;;;40.28;25.25;;;;;;;-142.75;100.00;78551.06;4947811;28;20062;-67
2021/12/14 01:25:52;;;;;;;38.22;24.60;;;;;;;-142.75;100.00;78547.13;4948487;28;20119;-68
2021/12/14 01:28:21;;;;;;;38.93;26.33;;;;;;;-142.75;100.00;78541.22;4949828;28;20034;-67
2021/12/14 01:31:59;;;;;;;39.13;24.88;;;;;;;-142.75;100.00;78543.19;4948678;28;20038;-67
2021/12/14 01:33:54;;;;;;;38.17;25.67;;;;;;;-142.75;100.00;78551.06;4962509;28;20089;-67
2021/12/14 01:42:03;;;;;;;43.60;27.87;;;;;;;-142.75;100.00;78564.84;5006940;28;20041;-67
2021/12/14 01:44:34;;;;;;;41.50;26.92;;;;;;;-142.75;100.00;78564.84;4960792;28;20035;-67
2021/12/14 01:47:06;;;;;;;42.50;27.43;;;;;;;-142.75;100.00;78570.75;4948038;28;20042;-67
2021/12/14 01:49:31;;;;;;;43.15;27.17;;;;;;;-142.75;100.00;78568.78;4949177;28;20067;-67
2021/12/14 01:52:01;;;;;;;40.95;25.95;;;;;;;-142.75;100.00;78572.72;4948083;28;20058;-67
2021/12/14 01:54:32;;;;;;;42.00;27.17;;;;;;;-142.75;100.00;78568.78;4949263;28;20035;-66
2021/12/14 01:57:00;;;;;;;43.28;27.10;;;;;;;-142.75;100.00;78558.94;4949314;28;20035;-65
2021/12/14 01:59:34;;;;;;;44.10;27.30;;;;;;;-142.75;100.00;78574.69;4949146;28;20027;-66
2021/12/14 02:02:22;;;;;;;43.38;28.17;;;;;;;-142.75;100.00;78566.81;4948239;28;20055;-67
2021/12/14 02:04:51;;;;;;;39.67;26.80;;;;;;;-142.75;100.00;78562.88;4950181;28;20062;-66
2021/12/14 02:07:18;;;;;;;42.40;27.87;;;;;;;-142.75;100.00;78570.75;4949158;28;20034;-66
2021/12/14 02:09:48;;;;;;;45.03;27.65;;;;;;;-142.75;100.00;78568.78;4948044;28;20031;-66
2021/12/14 02:12:18;;;;;;;42.28;27.55;;;;;;;-142.75;100.00;78570.75;4948643;28;20042;-66
2021/12/14 02:14:45;;;;;;;39.63;26.23;;;;;;;-142.75;100.00;78570.75;4947733;28;20435;-66
2021/12/14 02:17:14;;;;;;;43.00;27.67;;;;;;;-142.75;100.00;78570.75;4948731;28;20268;-67
2021/12/14 02:19:40;;;;;;;46.73;27.93;;;;;;;-142.75;100.00;78578.63;4947910;28;20067;-65
2021/12/14 02:22:07;;;;;;;40.75;26.40;;;;;;;-142.75;100.00;78570.75;4948574;28;20512;-67
2021/12/14 02:24:34;;;;;;;41.13;26.67;;;;;;;-142.75;100.00;78566.81;4946740;28;20031;-67
2021/12/14 02:27:00;;;;;;;44.47;28.13;;;;;;;-142.75;100.00;78582.59;4948404;28;20539;-66
2021/12/14 02:29:29;;;;;;;42.30;26.80;;;;;;;-142.75;100.00;78570.75;4948501;28;20110;-66
2021/12/14 02:32:03;;;;;;;43.27;27.07;;;;;;;-142.75;100.00;78588.50;4947352;28;20114;-66
2021/12/14 02:34:29;;;;;;;42.23;25.80;;;;;;;-142.75;100.00;78582.59;4949145;28;20055;-66
2021/12/14 02:36:54;;;;;;;40.97;27.38;;;;;;;-142.75;100.00;78574.69;4946939;29;20070;-66
2021/12/14 02:42:09;;;;;;;36.07;23.90;;;;;;;-142.75;100.00;78568.78;4948303;29;20137;-67
2021/12/14 02:44:35;;;;;;;37.43;24.20;;;;;;;-142.75;100.00;78568.78;4948291;28;20019;-67
2021/12/14 02:47:12;;;;;;;38.93;24.30;;;;;;;-142.75;100.00;78564.84;4948308;28;20031;-67
2021/12/14 02:49:39;;;;;;;36.67;23.37;;;;;;;-142.75;100.00;78570.75;4947806;28;20485;-66
2021/12/14 02:52:09;;;;;;;36.53;23.90;;;;;;;-142.75;100.00;78564.84;4948057;28;20032;-67
2021/12/14 02:54:48;;;;;;;39.87;23.83;;;;;;;-142.75;100.00;78564.84;4946754;29;20045;-67
2021/12/14 02:57:20;;;;;;;35.90;22.83;;;;;;;-142.75;100.00;78558.94;4946956;28;20034;-67
2021/12/14 02:59:48;;;;;;;33.15;21.27;;;;;;;-142.75;100.00;78558.94;4947461;28;20037;-67
2021/12/14 03:02:20;;;;;;;33.73;21.83;;;;;;;-142.75;100.00;78541.22;4947881;28;20027;-67
2021/12/14 03:04:53;;;;;;;36.75;21.98;;;;;;;-142.75;100.00;78535.31;4948573;28;20035;-67
2021/12/14 03:07:22;;;;;;;31.77;20.23;;;;;;;-142.75;100.00;78539.25;4948224;28;20433;-67
2021/12/14 03:09:56;;;;;;;30.30;20.63;;;;;;;-142.75;100.00;78531.38;4947303;28;20019;-67
2021/12/14 03:12:32;;;;;;;32.63;20.90;;;;;;;-142.75;100.00;78547.13;4948226;28;20031;-67
2021/12/14 03:15:15;;;;;;;29.87;19.73;;;;;;;-142.75;100.00;78555.00;4948152;28;20039;-67
2021/12/14 03:17:43;;;;;;;32.17;20.83;;;;;;;-142.75;100.00;78543.19;4948059;28;20038;-67
2021/12/14 03:20:34;;;;;;;32.00;20.77;;;;;;;-142.75;100.00;78551.06;4945911;29;20114;-67
2021/12/14 03:23:02;;;;;;;26.10;18.42;;;;;;;-142.75;100.00;78556.97;4946107;28;20160;-67
2021/12/14 03:25:29;;;;;;;30.90;19.40;;;;;;;-142.75;100.00;78551.06;4949244;28;20054;-67
2021/12/14 03:27:57;;;;;;;29.97;19.47;;;;;;;-142.75;100.00;78558.94;4951040;28;20552;-67
2021/12/14 03:30:26;;;;;;;29.57;19.37;;;;;;;-142.75;100.00;78549.09;4950450;28;20059;-67
2021/12/14 03:32:56;;;;;;;27.80;18.67;;;;;;;-142.75;100.00;78547.13;4951033;28;20122;-67
2021/12/14 03:35:36;;;;;;;29.50;18.52;;;;;;;-142.75;100.00;78545.16;4951911;28;20031;-67
2021/12/14 03:38:10;;;;;;;28.55;19.05;;;;;;;-142.75;100.00;78537.28;4951200;28;20031;-65
2021/12/14 03:40:36;;;;;;;27.70;18.10;;;;;;;-142.75;100.00;78535.31;4950094;28;20507;-65
2021/12/14 03:43:01;;;;;;;25.88;17.70;;;;;;;-142.75;100.00;78545.16;4950995;28;20043;-65
2021/12/14 03:45:26;;;;;;;24.27;16.45;;;;;;;-142.75;100.00;78541.22;4950915;28;20485;-66
2021/12/14 03:47:54;;;;;;;28.92;18.27;;;;;;;-142.75;100.00;78539.25;4950677;28;20405;-65
2021/12/14 03:50:27;;;;;;;25.73;16.95;;;;;;;-142.75;100.00;78547.13;4949206;29;20055;-65
2021/12/14 03:52:53;;;;;;;25.42;16.42;;;;;;;-142.75;100.00;78547.13;4950655;28;20037;-65
2021/12/14 03:55:24;;;;;;;24.95;17.33;;;;;;;-142.75;100.00;78543.19;4951166;28;20028;-66
2021/12/14 03:57:51;;;;;;;27.08;17.30;;;;;;;-142.75;100.00;78551.06;4951168;28;20023;-66
2021/12/14 04:00:25;;;;;;;;;;;;;;;-142.75;100.00;78535.31;4950644;28;20489;-65
2021/12/14 04:02:54;;;;;;;26.02;16.38;;;;;;;-142.75;100.00;78539.25;4950769;29;19915;-65
2021/12/14 04:05:20;;;;;;;23.77;15.40;;;;;;;-142.75;100.00;78543.19;4950235;29;20031;-65
2021/12/14 04:07:47;;;;;;;23.48;15.95;;;;;;;-142.75;100.00;78556.97;4950779;28;20019;-66
2021/12/14 04:10:22;;;;;;;24.58;16.70;;;;;;;-142.75;100.00;78543.19;4947119;29;20031;-66
2021/12/14 04:12:48;;;;;;;23.83;15.93;;;;;;;-142.75;100.00;78562.88;4950821;28;20100;-66
2021/12/14 04:15:14;;;;;;;22.45;15.55;;;;;;;-142.75;100.00;78566.81;4950384;28;20496;-66
2021/12/14 04:17:40;;;;;;;24.25;15.82;;;;;;;-142.75;100.00;78574.69;4950465;28;20106;-66
2021/12/14 04:20:39;;;;;;;24.55;15.50;;;;;;;-142.75;100.00;78564.84;4949668;28;20055;-66
2021/12/14 04:23:16;;;;;;;21.88;14.35;;;;;;;-142.75;100.00;78558.94;4959163;28;20433;-66
2021/12/14 04:25:42;;;;;;;25.58;16.33;;;;;;;-142.75;100.00;78558.94;4950587;28;20037;-66
2021/12/14 04:28:12;;;;;;;24.00;15.60;;;;;;;-142.75;100.00;78568.78;4948983;28;20031;-66
2021/12/14 04:30:38;;;;;;;22.38;15.25;;;;;;;-142.75;100.00;78566.81;4949232;28;20404;-66
2021/12/14 04:33:05;;;;;;;;;;;;;;;-142.75;100.00;78564.84;4950690;28;20050;-66
2021/12/14 04:35:37;;;;;;;22.20;14.18;;;;;;;-142.75;100.00;78566.81;4950685;28;19914;-66
2021/12/14 04:38:10;;;;;;;21.48;14.45;;;;;;;-142.75;100.00;78568.78;4948988;28;20058;-65
2021/12/14 04:51:57;;;;;;;21.37;14.20;;;;;;;-142.75;100.00;78556.97;4948441;29;20048;-66
2021/12/14 04:51:59;;;;;;;22.47;14.57;;;;;;;-142.75;100.00;78535.31;4949219;29;20065;-66
2021/12/14 04:54:46;;;;;;;20.23;14.02;;;;;;;-142.75;100.00;78537.28;4950011;28;21516;-65
2021/12/14 04:57:43;;;;;;;21.98;13.98;;;;;;;-142.75;100.00;78533.34;4950075;29;20580;-66
2021/12/14 05:00:23;;;;;;;20.58;13.52;;;;;;;-142.75;100.00;78531.38;4949262;28;20101;-66
2021/12/14 05:02:50;;;;;;;22.27;14.40;;;;;;;-142.75;100.00;78541.22;4967879;23;20007;-68
2021/12/14 05:05:20;;;;;;;20.17;14.18;;;;;;;-142.75;100.00;78539.25;4968314;28;20023;-69
2021/12/14 05:09:19;;;;;;;21.07;13.63;;;;;;;-142.75;100.00;78543.19;4967966;28;20050;-69
2021/12/14 05:10:43;;;;;;;18.25;12.63;;;;;;;-142.75;100.00;78541.22;4968078;28;20030;-68
2021/12/14 05:13:09;;;;;;;19.83;13.27;;;;;;;-142.75;100.00;78539.25;4972727;28;20033;-68
2021/12/14 05:15:40;;;;;;;22.02;14.77;;;;;;;-142.75;100.00;78535.31;4988047;28;20026;-69
2021/12/14 05:18:14;;;;;;;24.73;15.20;;;;;;;-142.75;100.00;78545.16;4988326;28;20030;-67
2021/12/14 05:20:45;;;;;;;19.75;13.85;;;;;;;-142.75;100.00;78535.31;4987589;28;20436;-68
2021/12/14 05:23:17;;;;;;;19.57;13.03;;;;;;;-142.75;100.00;78531.38;4985086;28;20432;-70
2021/12/14 05:25:43;;;;;;;19.38;13.20;;;;;;;-142.75;100.00;78527.44;4988158;28;20049;-69
2021/12/14 05:28:13;;;;;;;26.20;14.73;;;;;;;-142.75;100.00;78519.56;4988366;28;20022;-68
2021/12/14 05:30:41;;;;;;;22.75;13.48;;;;;;;-142.75;100.00;78535.31;4984863;28;20042;-68
2021/12/14 05:33:17;;;;;;;18.83;13.15;;;;;;;-142.75;100.00;78533.34;4987919;28;20046;-68
2021/12/14 05:35:46;;;;;;;21.15;14.27;;;;;;;-142.75;100.00;78543.19;4987626;28;20423;-68
2021/12/14 05:38:20;;;;;;;22.50;14.05;;;;;;;-142.75;100.00;78539.25;4987675;28;20244;-68
2021/12/14 05:43:26;;;;;;;20.83;14.80;;;;;;;-142.75;100.00;78551.06;4988135;28;20067;-68
2021/12/14 05:46:05;;;;;;;22.87;14.03;;;;;;;-142.75;100.00;78551.06;4986492;28;20034;-68
2021/12/14 05:48:34;;;;;;;23.77;15.38;;;;;;;-142.75;100.00;78547.13;4987581;28;20026;-68
2021/12/14 05:51:07;;;;;;;23.40;15.13;;;;;;;-142.75;100.00;78553.03;4985718;28;20057;-68
2021/12/14 05:53:36;;;;;;;25.10;15.73;;;;;;;-142.75;100.00;78558.94;4987679;28;20539;-68
2021/12/14 05:56:08;;;;;;;26.25;14.23;;;;;;;-142.75;100.00;78564.84;4986510;28;20026;-68
2021/12/14 05:58:34;;;;;;;25.00;14.43;;;;;;;-142.75;100.00;78568.78;4987696;28;20029;-68
2021/12/14 06:01:05;;;;;;;24.75;15.13;;;;;;;-142.75;100.00;78558.94;4987025;28;20495;-68
2021/12/14 06:03:39;;;;;;;22.52;14.80;;;;;;;-142.75;100.00;78564.84;4987784;28;20037;-68
2021/12/14 06:06:12;;;;;;;22.00;15.13;;;;;;;-142.75;100.00;78570.75;4986408;28;20121;-69
2021/12/14 06:08:37;;;;;;;22.30;14.43;;;;;;;-142.75;100.00;78576.66;4987407;28;20533;-67
2021/12/14 06:11:03;;;;;;;23.60;15.45;;;;;;;-142.75;100.00;78578.63;4986791;28;20030;-68
2021/12/14 06:13:41;;;;;;;22.35;14.85;;;;;;;-142.75;100.00;78574.69;4987377;28;20491;-69
2021/12/14 06:16:08;;;;;;;25.35;15.18;;;;;;;-142.75;100.00;78574.69;4987345;28;20053;-68
2021/12/14 06:18:35;;;;;;;22.63;15.07;;;;;;;-142.75;100.00;78578.63;4987429;28;20551;-69
2021/12/14 06:21:00;;;;;;;;;;;;;;;-142.75;100.00;78586.53;4986866;28;20050;-68
2021/12/14 06:23:28;;;;;;;23.33;14.82;;;;;;;-142.75;100.00;78596.38;4986326;28;19959;-67
2021/12/14 06:25:55;;;;;;;27.15;16.25;;;;;;;-142.75;100.00;78576.66;4980966;28;20030;-68
2021/12/14 06:28:23;;;;;;;27.73;16.98;;;;;;;-142.75;100.00;78582.59;4976925;28;20031;-67
2021/12/14 06:30:48;;;;;;;26.30;16.50;;;;;;;-142.75;100.00;78570.75;4976991;28;20026;-68
2021/12/14 06:33:13;;;;;;;26.90;15.63;;;;;;;-142.75;100.00;78568.78;4981553;28;20049;-69
2021/12/14 06:35:45;;;;;;;26.65;16.17;;;;;;;-142.75;100.00;78568.78;4986703;28;20026;-68
2021/12/14 06:38:28;;;;;;;25.98;15.38;;;;;;;-142.75;100.00;78582.59;4987141;28;20816;-66
2021/12/14 06:41:09;;;;;;;25.35;15.55;;;;;;;-142.75;100.00;78570.75;4986373;28;20110;-67
2021/12/14 06:43:37;;;;;;;26.95;16.15;;;;;;;-142.75;100.00;78576.66;4986959;28;20570;-71
2021/12/14 06:46:15;;;;;;;28.10;17.35;;;;;;;-142.75;100.00;78598.34;4986959;28;20019;-67
2021/12/14 06:49:12;;;;;;;24.95;16.05;;;;;;;-142.75;100.00;78598.34;4986776;28;20062;-67
2021/12/14 06:51:43;;;;;;;29.40;16.57;;;;;;;-142.75;100.00;78594.41;4986159;28;20050;-68
2021/12/14 06:54:18;;;;;;;25.00;16.10;;;;;;;-142.75;100.00;78590.47;4986879;28;20038;-68
2021/12/14 06:56:48;;;;;;;29.55;18.23;;;;;;;-142.75;100.00;78590.47;4985758;28;20037;-68
2021/12/14 06:59:15;;;;;;;30.67;16.73;;;;;;;-142.75;100.00;78588.50;4986450;28;20022;-68
2021/12/14 07:01:49;;;;;;;29.20;17.58;;;;;;;-142.75;100.00;78596.38;4984217;28;20449;-65
2021/12/14 07:04:20;;;;;;;29.00;18.20;;;;;;;-142.75;100.00;78600.31;4987316;28;20032;-67
2021/12/14 07:06:53;;;;;;;28.10;17.10;;;;;;;-142.75;100.00;78606.22;4986647;28;20475;-67
2021/12/14 07:09:23;;;;;;;29.45;18.02;;;;;;;-142.75;100.00;78606.22;4985589;28;20018;-67
2021/12/14 07:11:56;;;;;;;27.77;17.40;;;;;;;-142.75;100.00;78602.28;4986272;28;20062;-68
2021/12/14 07:14:28;;;;;;;28.75;17.70;;;;;;;-142.75;100.00;78604.25;4987202;28;20479;-67
2021/12/14 07:16:55;;;;;;;29.98;17.38;;;;;;;-142.75;100.00;78602.28;4986918;28;20095;-67
2021/12/14 07:19:49;;;;;;;29.25;17.00;;;;;;;-142.75;100.00;78606.22;4985679;28;20058;-67
2021/12/14 07:22:32;;;;;;;31.08;18.60;;;;;;;-142.75;100.00;78598.34;4988595;28;20095;-67
2021/12/14 07:25:14;;;;;;;29.23;17.38;;;;;;;-142.75;100.00;78588.50;4985125;28;20453;-68
2021/12/14 07:27:44;;;;;;;28.50;17.60;;;;;;;-142.75;100.00;78578.63;4986607;28;20061;-67
2021/12/14 07:30:24;;;;;;;28.40;17.30;;;;;;;-142.75;100.00;78598.34;4985657;28;20105;-67
2021/12/14 07:33:03;;;;;;;27.52;17.42;;;;;;;-142.75;100.00;78594.41;4986386;28;20400;-67
2021/12/14 07:35:33;;;;;;;27.93;17.63;;;;;;;-142.75;100.00;78594.41;4986713;28;20030;-68
2021/12/14 07:38:30;;;;;;;30.40;18.15;;;;;;;-142.75;100.00;78602.28;4986359;28;20042;-69
2021/12/14 07:41:34;;;;;;;31.55;18.20;;;;;;;-142.75;100.00;78610.16;4989338;28;20038;-67
2021/12/14 07:44:13;;;;;;;33.40;18.73;;;;;;;-142.75;100.00;78618.03;4989928;28;20030;-67
2021/12/14 07:46:52;;;;;;;35.20;18.65;;;;;;;-142.75;100.00;78614.09;4984917;28;20052;-68
2021/12/14 07:49:17;;;;;;;27.25;17.98;;;;;;;-142.75;100.00;78612.13;4986615;28;20023;-68
2021/12/14 07:51:42;;;;;;;28.80;17.77;;;;;;;-142.75;100.00;78606.22;4984047;28;20103;-68
2021/12/14 07:54:13;;;;;;;33.70;20.60;;;;;;;-142.75;100.00;78606.22;4986279;28;20030;-67
2021/12/14 07:56:48;;;;;;;30.58;18.17;;;;;;;-142.75;100.00;78608.19;4986231;28;20034;-68
2021/12/14 07:59:27;;;;;;;32.67;19.27;;;;;;;-142.75;100.00;78618.03;4984797;28;20014;-68
2021/12/14 08:02:18;;;;;;;34.25;18.88;;;;;;;-142.75;100.00;78616.06;4985827;28;20026;-67
2021/12/14 08:04:50;;;;;;;33.00;18.17;;;;;;;-142.75;100.00;78602.28;4987349;28;20034;-68
2021/12/14 08:07:28;;;;;;;32.67;20.02;;;;;;;-142.75;100.00;78610.16;4986452;28;20027;-68
2021/12/14 08:10:06;;;;;;;35.50;20.02;;;;;;;-142.75;100.00;78600.31;4985227;28;20089;-68
2021/12/14 08:12:55;;;;;;;36.13;20.38;;;;;;;-142.75;100.00;78604.25;4988840;28;20044;-68
2021/12/14 08:15:30;;;;;;;34.17;20.55;;;;;;;-142.75;100.00;78610.16;4989340;28;20030;-68
2021/12/14 08:18:07;;;;;;;35.38;21.33;;;;;;;-142.75;100.00;78606.22;4989223;28;20601;-66
2021/12/14 08:20:37;;;;;;;34.03;20.38;;;;;;;-142.75;100.00;78602.28;4986861;28;20026;-68
2021/12/14 08:23:19;;;;;;;33.53;19.48;;;;;;;-142.75;100.00;78588.50;4987171;28;20483;-68
2021/12/14 08:25:45;;;;;;;35.45;21.15;;;;;;;-142.75;100.00;78598.34;4988373;28;20030;-67
2021/12/14 08:28:13;;;;;;;37.20;19.88;;;;;;;-142.75;100.00;78598.34;4988094;28;20438;-68
2021/12/14 08:30:40;;;;;;;32.85;19.85;;;;;;;-142.75;100.00;78621.97;4987554;28;20420;-67
2021/12/14 08:33:18;;;;;;;32.88;19.45;;;;;;;-142.75;100.00;78606.22;4987621;28;20034;-67
2021/12/14 08:35:43;;;;;;;39.33;20.02;;;;;;;-142.75;100.00;78604.25;4987230;28;20038;-68
2021/12/14 08:38:09;;;;;;;39.22;22.23;;;;;;;-142.75;100.00;78602.28;4986995;28;20506;-69
2021/12/14 08:40:48;;;;;;;38.65;21.02;;;;;;;-142.75;100.00;78602.28;4987397;28;20030;-68
2021/12/14 08:43:25;;;;;;;35.05;20.45;;;;;;;-142.75;100.00;78614.09;4987633;28;20034;-68
2021/12/14 08:45:55;;;;;;;37.60;21.48;;;;;;;-142.75;100.00;78606.22;4988252;28;20022;-68
2021/12/14 08:48:25;;;;;;;34.97;21.10;;;;;;;-142.75;100.00;78608.19;4988164;28;20042;-68
2021/12/14 08:50:56;;;;;;;36.33;21.10;;;;;;;-142.75;100.00;78625.91;4987557;28;20117;-68
2021/12/14 08:53:25;;;;;;;36.92;21.70;;;;;;;-142.75;100.00;78629.84;4988067;28;20075;-68
2021/12/14 08:55:55;;;;;;;38.58;22.90;;;;;;;-142.75;100.00;78627.88;4988026;28;20026;-67
2021/12/14 08:58:21;;;;;;;36.38;21.75;;;;;;;-142.75;100.00;78621.97;4987983;28;20022;-68
2021/12/14 09:00:55;;;;;;;40.03;22.02;;;;;;;-142.75;100.00;78614.09;4986928;28;20053;-70
2021/12/14 09:03:33;;;;;;;38.65;22.30;;;;;;;-142.75;100.00;78631.81;4986879;28;20071;-66
2021/12/14 09:06:03;;;;;;;39.90;23.10;;;;;;;-142.75;100.00;78623.94;4988318;28;20026;-66
2021/12/14 09:08:29;;;;;;;45.50;26.92;;;;;;;-142.75;100.00;78629.84;4987838;28;20026;-67
2021/12/14 09:10:56;;;;;;;42.65;24.17;;;;;;;-142.75;100.00;78625.91;4985156;28;20037;-70
2021/12/14 09:13:24;;;;;;;41.55;23.08;;;;;;;-142.75;100.00;78633.78;4987803;28;20036;-68
2021/12/14 09:15:57;;;;;;;42.38;24.60;;;;;;;-142.75;100.00;78631.81;4987392;28;20541;-67
2021/12/14 09:18:24;;;;;;;44.45;26.00;;;;;;;-142.75;100.00;78633.78;4985712;28;20034;-71
2021/12/14 09:20:59;;;;;;;40.20;23.73;;;;;;;-142.75;100.00;78635.75;4986761;28;20025;-68
2021/12/14 09:23:38;;;;;;;42.45;24.65;;;;;;;-142.75;100.00;78629.84;4985197;28;20034;-69
2021/12/14 09:26:12;;;;;;;39.72;23.02;;;;;;;-142.75;100.00;78623.94;4988171;28;20026;-68
2021/12/14 09:28:37;;;;;;;44.58;24.73;;;;;;;-142.75;100.00;78631.81;4985443;28;20105;-67
2021/12/14 09:31:13;;;;;;;47.83;25.33;;;;;;;-142.75;100.00;78621.97;4987112;28;20105;-67
2021/12/14 09:33:40;;;;;;;44.78;24.65;;;;;;;-142.75;100.00;78604.25;4986594;28;20027;-68
2021/12/14 09:36:12;;;;;;;43.23;24.40;;;;;;;-142.75;100.00;78602.28;4988159;28;20026;-68
2021/12/14 09:38:41;;;;;;;42.30;23.67;;;;;;;-142.75;100.00;78602.28;4985919;28;20109;-68
2021/12/14 09:41:10;;;;;;;41.30;23.10;;;;;;;-142.75;100.00;78596.38;4987055;28;20548;-68
2021/12/14 09:43:37;;;;;;;39.13;21.98;;;;;;;-142.75;100.00;78598.34;4987358;28;20018;-68
2021/12/14 09:46:06;;;;;;;39.97;24.52;;;;;;;-142.75;100.00;78600.31;4987585;28;20049;-68
2021/12/14 09:48:36;;;;;;;40.75;22.33;;;;;;;-142.75;100.00;78594.41;4987449;28;20022;-68
2021/12/14 09:51:08;;;;;;;44.95;26.08;;;;;;;-142.75;100.00;78594.41;4985659;28;20014;-68
2021/12/14 09:53:36;;;;;;;42.05;24.10;;;;;;;-142.75;100.00;78590.47;4987665;28;20038;-68
2021/12/14 09:56:03;;;;;;;45.22;24.05;;;;;;;-142.75;100.00;78590.47;4987426;28;20037;-69
2021/12/14 09:58:35;;;;;;;40.30;23.95;;;;;;;-142.75;100.00;78580.59;4985724;28;20030;-67
2021/12/14 10:01:08;;;;;;;44.25;24.35;;;;;;;-142.75;100.00;78578.63;4986819;28;20018;-68
2021/12/14 10:03:35;;;;;;;46.55;23.52;;;;;;;-142.75;100.00;78570.75;4987275;28;20027;-68
2021/12/14 10:06:03;;;;;;;;;;;;;;;-142.75;100.00;78566.81;4987894;28;20030;-68
2021/12/14 10:08:38;;;;;;;40.45;23.63;;;;;;;-142.75;100.00;78551.06;4987395;28;19914;-68
2021/12/14 10:11:07;;;;;;;39.53;22.00;;;;;;;-142.75;100.00;78537.28;4986417;28;20484;-68
2021/12/14 10:13:37;;;;;;;40.65;23.67;;;;;;;-142.75;100.00;78551.06;4987293;28;20030;-68
2021/12/14 10:16:04;;;;;;;41.65;23.88;;;;;;;-142.75;100.00;78551.06;4984787;28;20026;-69
2021/12/14 10:18:33;;;;;;;39.60;23.58;;;;;;;-142.75;100.00;78547.13;4986978;28;20037;-69
2021/12/14 10:21:07;;;;;;;41.63;22.45;;;;;;;-142.75;100.00;78547.13;4986564;28;20034;-68
2021/12/14 10:23:34;;;;;;;42.83;22.55;;;;;;;-142.75;100.00;78535.31;4986944;28;20038;-68
2021/12/14 10:26:00;;;;;;;42.60;23.45;;;;;;;-142.75;100.00;78543.19;4985800;28;20034;-69
2021/12/14 10:28:27;;;;;;;;;;;;;;;-142.75;100.00;78533.34;4987399;28;20285;-70
2021/12/14 10:30:59;;;;;;;42.08;22.85;;;;;;;-142.75;100.00;78531.38;4986370;28;19913;-69
2021/12/14 10:33:29;;;;;;;40.33;23.25;;;;;;;-142.75;100.00;78531.38;4986808;28;20060;-69
2021/12/14 10:36:01;;;;;;;37.58;21.98;;;;;;;-142.75;100.00;78529.41;4985838;28;20033;-68
2021/12/14 10:38:34;;;;;;;42.60;22.58;;;;;;;-142.75;100.00;78535.31;4987094;28;20034;-68
2021/12/14 10:43:48;;;;;;;44.53;24.30;;;;;;;-142.75;100.00;78539.25;4987563;28;20117;-68
2021/12/14 10:46:26;;;;;;;45.55;24.80;;;;;;;-142.75;100.00;78533.34;4985854;28;20109;-68
2021/12/14 10:48:54;;;;;;;42.70;22.42;;;;;;;-142.75;100.00;78547.13;4985840;28;20079;-70
2021/12/14 10:51:25;;;;;;;43.90;22.83;;;;;;;-142.75;100.00;78531.38;4986410;28;20018;-67
2021/12/14 10:53:54;;;;;;;46.63;23.90;;;;;;;-142.75;100.00;78523.50;4986822;28;20030;-68
2021/12/14 10:56:26;;;;;;;42.72;24.83;;;;;;;-142.75;100.00;78519.56;4987211;28;20034;-68
2021/12/14 10:58:54;;;;;;;42.20;23.42;;;;;;;-142.75;100.00;78521.53;4986982;28;20040;-71
2021/12/14 11:01:31;;;;;;;44.92;26.17;;;;;;;-142.75;100.00;78509.72;4985952;28;20072;-68
2021/12/14 11:04:05;;;;;;;45.17;22.90;;;;;;;-142.75;100.00;78511.69;4986308;28;20578;-68
2021/12/14 11:06:33;;;;;;;42.35;23.98;;;;;;;-142.75;100.00;78495.94;4985318;28;20531;-70
2021/12/14 11:11:36;;;;;;;44.50;24.98;;;;;;;-142.75;100.00;78491.97;4986001;28;20522;-67
2021/12/14 11:14:07;;;;;;;44.75;24.45;;;;;;;-142.75;100.00;78488.03;4986116;28;20939;-68
2021/12/14 11:19:50;;;;;;;30.88;18.85;;;;;;;-142.75;100.00;78472.28;4986733;28;20505;-67
2021/12/14 11:22:27;;;;;;;45.63;25.45;;;;;;;-142.75;100.00;78468.34;4986574;28;20423;-69
2021/12/14 11:24:59;;;;;;;43.10;24.30;;;;;;;-142.75;100.00;78476.22;4986685;28;20377;-68
2021/12/14 11:27:29;;;;;;;47.60;24.08;;;;;;;-142.75;100.00;78474.25;4986184;28;20073;-69
2021/12/14 11:30:18;;;;;;;49.67;24.55;;;;;;;-142.75;100.00;78476.22;4985402;28;20147;-68
2021/12/14 11:32:48;;;;;;;41.10;23.00;;;;;;;-142.75;100.00;78472.28;4984492;28;20030;-68
2021/12/14 11:35:25;;;;;;;49.92;23.48;;;;;;;-142.75;100.00;78488.03;4986023;28;20069;-68
2021/12/14 11:37:51;;;;;;;39.42;22.73;;;;;;;-142.75;100.00;78490.00;4982960;28;20023;-68
2021/12/14 11:40:19;;;;;;;46.03;23.42;;;;;;;-142.75;100.00;78484.09;4985429;28;20029;-68
2021/12/14 11:42:45;;;;;;;44.47;24.58;;;;;;;-142.75;100.00;78484.09;4986021;28;20053;-68
2021/12/14 11:45:20;;;;;;;40.58;22.90;;;;;;;-142.75;100.00;78490.00;4985991;28;20109;-67
2021/12/14 11:47:58;;;;;;;40.63;21.85;;;;;;;-142.75;100.00;78490.00;4988973;28;20033;-67
2021/12/14 11:50:35;;;;;;;38.75;23.13;;;;;;;-142.75;100.00;78495.94;4988683;28;20044;-68
2021/12/14 11:53:06;;;;;;;43.17;21.52;;;;;;;-142.75;100.00;78501.84;4989355;28;20034;-67